sensor_id;sensor_type;location;lat;lon;timestamp;temperature;humidity
27188;DHT22;14708;50.872;5.306;2022-11-20T00:01:46;20.80;63.50
27188;DHT22;14708;50.872;5.306;2022-11-20T00:04:12;20.70;63.20
27188;DHT22;14708;50.872;5.306;2022-11-20T00:06:38;20.70;63.40
27188;DHT22;14708;50.872;5.306;2022-11-20T00:09:03;20.70;63.20
27188;DHT22;14708;50.872;5.306;2022-11-20T00:11:31;20.70;64.00
27188;DHT22;14708;50.872;5.306;2022-11-20T00:13:59;20.70;63.20
27188;DHT22;14708;50.872;5.306;2022-11-20T00:16:27;20.70;63.30
27188;DHT22;14708;50.872;5.306;2022-11-20T00:18:53;20.70;63.30
27188;DHT22;14708;50.872;5.306;2022-11-20T00:21:21;20.60;63.40
27188;DHT22;14708;50.872;5.306;2022-11-20T00:23:48;20.60;63.20
27188;DHT22;14708;50.872;5.306;2022-11-20T00:26:15;20.60;64.10
27188;DHT22;14708;50.872;5.306;2022-11-20T00:28:42;20.60;63.30
27188;DHT22;14708;50.872;5.306;2022-11-20T00:31:13;20.60;63.30
27188;DHT22;14708;50.872;5.306;2022-11-20T00:33:39;20.60;63.30
27188;DHT22;14708;50.872;5.306;2022-11-20T00:36:07;20.50;63.30
27188;DHT22;14708;50.872;5.306;2022-11-20T00:38:33;20.50;63.30
27188;DHT22;14708;50.872;5.306;2022-11-20T00:41:01;20.50;63.40
27188;DHT22;14708;50.872;5.306;2022-11-20T00:43:27;20.50;63.30
27188;DHT22;14708;50.872;5.306;2022-11-20T00:45:58;20.50;63.40
27188;DHT22;14708;50.872;5.306;2022-11-20T00:48:24;20.50;63.00
27188;DHT22;14708;50.872;5.306;2022-11-20T00:50:49;20.50;63.10
27188;DHT22;14708;50.872;5.306;2022-11-20T00:53:15;20.40;63.10
27188;DHT22;14708;50.872;5.306;2022-11-20T00:55:40;20.40;63.00
27188;DHT22;14708;50.872;5.306;2022-11-20T00:58:06;20.40;63.20
27188;DHT22;14708;50.872;5.306;2022-11-20T01:00:32;20.40;63.20
27188;DHT22;14708;50.872;5.306;2022-11-20T01:02:57;20.40;63.30
27188;DHT22;14708;50.872;5.306;2022-11-20T01:05:23;20.40;63.20
27188;DHT22;14708;50.872;5.306;2022-11-20T01:07:48;20.30;63.40
27188;DHT22;14708;50.872;5.306;2022-11-20T01:10:14;20.30;63.30
27188;DHT22;14708;50.872;5.306;2022-11-20T01:12:39;20.30;63.30
27188;DHT22;14708;50.872;5.306;2022-11-20T01:15:05;20.30;63.30
27188;DHT22;14708;50.872;5.306;2022-11-20T01:17:31;20.30;63.20
27188;DHT22;14708;50.872;5.306;2022-11-20T01:19:57;20.30;63.40
27188;DHT22;14708;50.872;5.306;2022-11-20T01:22:23;20.30;63.40
27188;DHT22;14708;50.872;5.306;2022-11-20T01:24:48;20.30;63.40
27188;DHT22;14708;50.872;5.306;2022-11-20T01:27:14;20.30;63.10
27188;DHT22;14708;50.872;5.306;2022-11-20T01:29:39;20.20;63.30
27188;DHT22;14708;50.872;5.306;2022-11-20T01:32:05;20.30;63.50
27188;DHT22;14708;50.872;5.306;2022-11-20T01:34:31;20.30;63.40
27188;DHT22;14708;50.872;5.306;2022-11-20T01:36:56;20.20;63.30
27188;DHT22;14708;50.872;5.306;2022-11-20T01:39:25;20.20;63.50
27188;DHT22;14708;50.872;5.306;2022-11-20T01:41:52;20.20;63.50
27188;DHT22;14708;50.872;5.306;2022-11-20T01:44:58;20.20;63.60
27188;DHT22;14708;50.872;5.306;2022-11-20T01:47:34;20.20;63.30
27188;DHT22;14708;50.872;5.306;2022-11-20T01:52:50;20.10;63.30
27188;DHT22;14708;50.872;5.306;2022-11-20T01:55:23;20.20;63.50
27188;DHT22;14708;50.872;5.306;2022-11-20T01:57:51;20.10;63.40
27188;DHT22;14708;50.872;5.306;2022-11-20T02:00:18;20.10;63.40
27188;DHT22;14708;50.872;5.306;2022-11-20T02:02:50;20.10;63.30
27188;DHT22;14708;50.872;5.306;2022-11-20T02:05:35;20.10;63.40
27188;DHT22;14708;50.872;5.306;2022-11-20T02:08:03;20.10;63.40
27188;DHT22;14708;50.872;5.306;2022-11-20T02:10:29;20.10;63.50
27188;DHT22;14708;50.872;5.306;2022-11-20T02:12:55;20.10;63.40
27188;DHT22;14708;50.872;5.306;2022-11-20T02:15:40;20.10;63.50
27188;DHT22;14708;50.872;5.306;2022-11-20T02:18:06;20.10;63.50
27188;DHT22;14708;50.872;5.306;2022-11-20T02:20:32;20.00;63.40
27188;DHT22;14708;50.872;5.306;2022-11-20T02:23:08;20.10;63.60
27188;DHT22;14708;50.872;5.306;2022-11-20T02:25:37;20.00;63.60
27188;DHT22;14708;50.872;5.306;2022-11-20T02:28:04;20.00;64.40
27188;DHT22;14708;50.872;5.306;2022-11-20T02:30:30;20.00;63.60
27188;DHT22;14708;50.872;5.306;2022-11-20T02:32:55;20.00;63.50
27188;DHT22;14708;50.872;5.306;2022-11-20T02:37:54;20.00;63.60
27188;DHT22;14708;50.872;5.306;2022-11-20T02:40:20;20.00;63.70
27188;DHT22;14708;50.872;5.306;2022-11-20T02:42:47;19.90;63.50
27188;DHT22;14708;50.872;5.306;2022-11-20T02:45:13;19.90;63.50
27188;DHT22;14708;50.872;5.306;2022-11-20T02:47:38;19.90;63.50
27188;DHT22;14708;50.872;5.306;2022-11-20T02:50:06;19.90;63.50
27188;DHT22;14708;50.872;5.306;2022-11-20T02:52:32;19.90;63.50
27188;DHT22;14708;50.872;5.306;2022-11-20T02:54:57;19.90;63.60
27188;DHT22;14708;50.872;5.306;2022-11-20T02:57:23;19.90;63.50
27188;DHT22;14708;50.872;5.306;2022-11-20T02:59:48;19.90;63.40
27188;DHT22;14708;50.872;5.306;2022-11-20T03:02:14;19.90;63.60
27188;DHT22;14708;50.872;5.306;2022-11-20T03:04:39;19.90;63.60
27188;DHT22;14708;50.872;5.306;2022-11-20T03:07:05;19.90;63.60
27188;DHT22;14708;50.872;5.306;2022-11-20T03:09:31;19.90;63.50
27188;DHT22;14708;50.872;5.306;2022-11-20T03:11:56;19.80;63.50
27188;DHT22;14708;50.872;5.306;2022-11-20T03:14:22;19.80;63.30
27188;DHT22;14708;50.872;5.306;2022-11-20T03:16:47;19.80;63.50
27188;DHT22;14708;50.872;5.306;2022-11-20T03:19:13;19.80;63.40
27188;DHT22;14708;50.872;5.306;2022-11-20T03:21:39;19.80;63.50
27188;DHT22;14708;50.872;5.306;2022-11-20T03:24:04;19.80;63.60
27188;DHT22;14708;50.872;5.306;2022-11-20T03:26:30;19.80;63.30
27188;DHT22;14708;50.872;5.306;2022-11-20T03:29:01;19.80;63.50
27188;DHT22;14708;50.872;5.306;2022-11-20T03:31:32;19.80;63.50
27188;DHT22;14708;50.872;5.306;2022-11-20T03:33:59;19.70;63.40
27188;DHT22;14708;50.872;5.306;2022-11-20T03:36:26;19.80;63.40
27188;DHT22;14708;50.872;5.306;2022-11-20T03:38:54;19.80;63.40
27188;DHT22;14708;50.872;5.306;2022-11-20T03:41:27;19.80;63.40
27188;DHT22;14708;50.872;5.306;2022-11-20T03:43:55;19.80;63.40
27188;DHT22;14708;50.872;5.306;2022-11-20T03:46:21;19.70;63.40
27188;DHT22;14708;50.872;5.306;2022-11-20T03:48:47;19.70;63.40
27188;DHT22;14708;50.872;5.306;2022-11-20T03:51:16;19.70;63.40
27188;DHT22;14708;50.872;5.306;2022-11-20T03:53:43;19.70;63.40
27188;DHT22;14708;50.872;5.306;2022-11-20T03:56:10;19.70;63.40
27188;DHT22;14708;50.872;5.306;2022-11-20T03:58:37;19.70;63.50
27188;DHT22;14708;50.872;5.306;2022-11-20T04:01:27;19.70;63.40
27188;DHT22;14708;50.872;5.306;2022-11-20T04:03:54;19.60;63.30
27188;DHT22;14708;50.872;5.306;2022-11-20T04:06:23;19.70;63.50
27188;DHT22;14708;50.872;5.306;2022-11-20T04:08:49;19.70;63.20
27188;DHT22;14708;50.872;5.306;2022-11-20T04:11:24;19.60;63.20
27188;DHT22;14708;50.872;5.306;2022-11-20T04:13:52;19.70;63.10
27188;DHT22;14708;50.872;5.306;2022-11-20T04:16:18;19.60;63.20
27188;DHT22;14708;50.872;5.306;2022-11-20T04:18:44;19.60;63.20
27188;DHT22;14708;50.872;5.306;2022-11-20T04:21:10;19.60;63.30
27188;DHT22;14708;50.872;5.306;2022-11-20T04:23:36;19.60;63.20
27188;DHT22;14708;50.872;5.306;2022-11-20T04:26:07;19.60;63.20
27188;DHT22;14708;50.872;5.306;2022-11-20T04:28:33;19.60;63.30
27188;DHT22;14708;50.872;5.306;2022-11-20T04:33:32;19.60;63.20
27188;DHT22;14708;50.872;5.306;2022-11-20T04:36:03;19.60;63.20
27188;DHT22;14708;50.872;5.306;2022-11-20T04:38:29;19.50;63.10
27188;DHT22;14708;50.872;5.306;2022-11-20T04:41:01;19.60;63.30
27188;DHT22;14708;50.872;5.306;2022-11-20T04:43:26;19.50;63.20
27188;DHT22;14708;50.872;5.306;2022-11-20T04:45:54;19.50;63.20
27188;DHT22;14708;50.872;5.306;2022-11-20T04:48:20;19.50;63.20
27188;DHT22;14708;50.872;5.306;2022-11-20T04:50:45;19.50;63.10
27188;DHT22;14708;50.872;5.306;2022-11-20T04:53:11;19.50;63.20
27188;DHT22;14708;50.872;5.306;2022-11-20T04:55:36;19.50;63.10
27188;DHT22;14708;50.872;5.306;2022-11-20T04:58:02;19.50;63.20
27188;DHT22;14708;50.872;5.306;2022-11-20T05:00:28;19.50;63.20
27188;DHT22;14708;50.872;5.306;2022-11-20T05:02:53;19.40;63.20
27188;DHT22;14708;50.872;5.306;2022-11-20T05:05:19;19.50;63.30
27188;DHT22;14708;50.872;5.306;2022-11-20T05:07:44;19.50;63.30
27188;DHT22;14708;50.872;5.306;2022-11-20T05:10:10;19.40;63.30
27188;DHT22;14708;50.872;5.306;2022-11-20T05:12:35;19.40;63.30
27188;DHT22;14708;50.872;5.306;2022-11-20T05:15:01;19.40;63.30
27188;DHT22;14708;50.872;5.306;2022-11-20T05:17:27;19.40;63.20
27188;DHT22;14708;50.872;5.306;2022-11-20T05:19:52;19.40;63.00
27188;DHT22;14708;50.872;5.306;2022-11-20T05:22:18;19.50;63.10
27188;DHT22;14708;50.872;5.306;2022-11-20T05:24:43;19.40;63.20
27188;DHT22;14708;50.872;5.306;2022-11-20T05:27:09;19.40;63.00
27188;DHT22;14708;50.872;5.306;2022-11-20T05:29:34;19.40;63.20
27188;DHT22;14708;50.872;5.306;2022-11-20T05:32:00;19.40;63.00
27188;DHT22;14708;50.872;5.306;2022-11-20T05:34:25;19.40;63.30
27188;DHT22;14708;50.872;5.306;2022-11-20T05:36:51;19.40;63.20
27188;DHT22;14708;50.872;5.306;2022-11-20T05:39:16;19.40;63.20
27188;DHT22;14708;50.872;5.306;2022-11-20T05:41:42;19.40;63.00
27188;DHT22;14708;50.872;5.306;2022-11-20T05:44:10;19.30;63.10
27188;DHT22;14708;50.872;5.306;2022-11-20T05:46:36;19.40;63.30
27188;DHT22;14708;50.872;5.306;2022-11-20T05:49:01;19.30;63.10
27188;DHT22;14708;50.872;5.306;2022-11-20T05:51:27;19.40;63.00
27188;DHT22;14708;50.872;5.306;2022-11-20T05:53:53;19.40;63.00
27188;DHT22;14708;50.872;5.306;2022-11-20T05:56:20;19.40;62.00
27188;DHT22;14708;50.872;5.306;2022-11-20T05:58:47;19.40;62.90
27188;DHT22;14708;50.872;5.306;2022-11-20T06:01:14;19.40;63.10
27188;DHT22;14708;50.872;5.306;2022-11-20T06:03:41;19.50;60.40
27188;DHT22;14708;50.872;5.306;2022-11-20T06:06:17;19.60;59.70
27188;DHT22;14708;50.872;5.306;2022-11-20T06:08:44;19.60;60.20
27188;DHT22;14708;50.872;5.306;2022-11-20T06:11:11;19.70;60.40
27188;DHT22;14708;50.872;5.306;2022-11-20T06:13:37;19.70;60.40
27188;DHT22;14708;50.872;5.306;2022-11-20T06:16:03;19.70;60.40
27188;DHT22;14708;50.872;5.306;2022-11-20T06:18:29;19.70;60.70
27188;DHT22;14708;50.872;5.306;2022-11-20T06:21:19;19.70;60.70
27188;DHT22;14708;50.872;5.306;2022-11-20T06:23:45;19.70;60.50
27188;DHT22;14708;50.872;5.306;2022-11-20T06:26:14;19.70;60.70
27188;DHT22;14708;50.872;5.306;2022-11-20T06:28:40;19.70;61.10
27188;DHT22;14708;50.872;5.306;2022-11-20T06:31:07;19.60;60.40
27188;DHT22;14708;50.872;5.306;2022-11-20T06:33:33;19.50;61.90
27188;DHT22;14708;50.872;5.306;2022-11-20T06:36:00;19.40;62.10
27188;DHT22;14708;50.872;5.306;2022-11-20T06:38:26;19.30;62.30
27188;DHT22;14708;50.872;5.306;2022-11-20T06:40:52;19.30;62.00
27188;DHT22;14708;50.872;5.306;2022-11-20T06:43:18;19.30;62.10
27188;DHT22;14708;50.872;5.306;2022-11-20T06:45:43;19.30;62.20
27188;DHT22;14708;50.872;5.306;2022-11-20T06:48:09;19.30;62.30
27188;DHT22;14708;50.872;5.306;2022-11-20T06:50:36;19.20;62.30
27188;DHT22;14708;50.872;5.306;2022-11-20T06:53:02;19.20;62.40
27188;DHT22;14708;50.872;5.306;2022-11-20T06:55:29;19.20;62.60
27188;DHT22;14708;50.872;5.306;2022-11-20T06:57:54;19.20;62.30
27188;DHT22;14708;50.872;5.306;2022-11-20T07:00:20;19.20;62.50
27188;DHT22;14708;50.872;5.306;2022-11-20T07:02:45;19.20;62.40
27188;DHT22;14708;50.872;5.306;2022-11-20T07:05:11;19.20;62.60
27188;DHT22;14708;50.872;5.306;2022-11-20T07:07:36;19.10;62.60
27188;DHT22;14708;50.872;5.306;2022-11-20T07:10:02;19.20;62.60
27188;DHT22;14708;50.872;5.306;2022-11-20T07:12:28;19.10;62.50
27188;DHT22;14708;50.872;5.306;2022-11-20T07:14:53;19.10;62.50
27188;DHT22;14708;50.872;5.306;2022-11-20T07:17:19;19.20;62.20
27188;DHT22;14708;50.872;5.306;2022-11-20T07:19:45;19.20;62.20
27188;DHT22;14708;50.872;5.306;2022-11-20T07:22:10;19.10;62.30
27188;DHT22;14708;50.872;5.306;2022-11-20T07:24:36;19.20;62.30
27188;DHT22;14708;50.872;5.306;2022-11-20T07:27:01;19.30;62.20
27188;DHT22;14708;50.872;5.306;2022-11-20T07:29:27;19.20;62.20
27188;DHT22;14708;50.872;5.306;2022-11-20T07:31:52;19.20;62.60
27188;DHT22;14708;50.872;5.306;2022-11-20T07:34:18;19.20;62.70
27188;DHT22;14708;50.872;5.306;2022-11-20T07:36:45;19.40;62.40
27188;DHT22;14708;50.872;5.306;2022-11-20T07:39:10;19.40;62.40
27188;DHT22;14708;50.872;5.306;2022-11-20T07:41:36;19.40;62.20
27188;DHT22;14708;50.872;5.306;2022-11-20T07:44:01;19.50;62.20
27188;DHT22;14708;50.872;5.306;2022-11-20T07:46:27;19.50;62.50
27188;DHT22;14708;50.872;5.306;2022-11-20T07:48:53;19.60;62.10
27188;DHT22;14708;50.872;5.306;2022-11-20T07:51:18;19.80;62.20
27188;DHT22;14708;50.872;5.306;2022-11-20T07:53:44;19.90;62.00
27188;DHT22;14708;50.872;5.306;2022-11-20T07:56:09;20.00;61.90
27188;DHT22;14708;50.872;5.306;2022-11-20T07:58:35;20.20;61.40
27188;DHT22;14708;50.872;5.306;2022-11-20T08:01:05;20.30;61.40
27188;DHT22;14708;50.872;5.306;2022-11-20T08:03:31;20.30;61.20
27188;DHT22;14708;50.872;5.306;2022-11-20T08:06:00;20.30;60.80
27188;DHT22;14708;50.872;5.306;2022-11-20T08:08:27;20.40;61.00
27188;DHT22;14708;50.872;5.306;2022-11-20T08:10:52;20.40;60.90
27188;DHT22;14708;50.872;5.306;2022-11-20T08:13:38;20.40;60.70
27188;DHT22;14708;50.872;5.306;2022-11-20T08:16:22;20.30;60.90
27188;DHT22;14708;50.872;5.306;2022-11-20T08:18:48;20.40;60.80
27188;DHT22;14708;50.872;5.306;2022-11-20T08:21:13;20.40;60.60
27188;DHT22;14708;50.872;5.306;2022-11-20T08:23:39;20.30;60.70
27188;DHT22;14708;50.872;5.306;2022-11-20T08:26:05;20.20;61.10
27188;DHT22;14708;50.872;5.306;2022-11-20T08:28:30;20.10;61.50
27188;DHT22;14708;50.872;5.306;2022-11-20T08:31:00;20.10;61.70
27188;DHT22;14708;50.872;5.306;2022-11-20T08:33:26;20.00;61.90
27188;DHT22;14708;50.872;5.306;2022-11-20T08:35:51;20.10;62.10
27188;DHT22;14708;50.872;5.306;2022-11-20T08:38:17;20.00;61.90
27188;DHT22;14708;50.872;5.306;2022-11-20T08:40:42;20.00;62.10
27188;DHT22;14708;50.872;5.306;2022-11-20T08:43:28;20.00;62.10
27188;DHT22;14708;50.872;5.306;2022-11-20T08:45:56;20.00;62.30
27188;DHT22;14708;50.872;5.306;2022-11-20T08:48:22;20.00;62.30
27188;DHT22;14708;50.872;5.306;2022-11-20T08:50:47;20.00;62.30
27188;DHT22;14708;50.872;5.306;2022-11-20T08:53:13;20.00;62.30
27188;DHT22;14708;50.872;5.306;2022-11-20T08:55:38;20.10;62.30
27188;DHT22;14708;50.872;5.306;2022-11-20T08:58:05;20.10;62.30
27188;DHT22;14708;50.872;5.306;2022-11-20T09:00:31;20.10;62.30
27188;DHT22;14708;50.872;5.306;2022-11-20T09:02:57;20.10;60.00
27188;DHT22;14708;50.872;5.306;2022-11-20T09:05:24;20.10;60.50
27188;DHT22;14708;50.872;5.306;2022-11-20T09:07:49;20.10;57.80
27188;DHT22;14708;50.872;5.306;2022-11-20T09:10:15;20.10;59.10
27188;DHT22;14708;50.872;5.306;2022-11-20T09:12:41;20.10;60.00
27188;DHT22;14708;50.872;5.306;2022-11-20T09:15:07;20.10;60.30
27188;DHT22;14708;50.872;5.306;2022-11-20T09:17:32;20.10;60.30
27188;DHT22;14708;50.872;5.306;2022-11-20T09:19:58;20.20;60.10
27188;DHT22;14708;50.872;5.306;2022-11-20T09:22:24;20.20;60.30
27188;DHT22;14708;50.872;5.306;2022-11-20T09:24:49;20.20;60.30
27188;DHT22;14708;50.872;5.306;2022-11-20T09:27:15;20.30;60.20
27188;DHT22;14708;50.872;5.306;2022-11-20T09:29:46;20.40;60.00
27188;DHT22;14708;50.872;5.306;2022-11-20T09:32:11;20.50;59.80
27188;DHT22;14708;50.872;5.306;2022-11-20T09:34:37;20.60;59.90
27188;DHT22;14708;50.872;5.306;2022-11-20T09:37:02;20.70;59.60
27188;DHT22;14708;50.872;5.306;2022-11-20T09:39:28;20.80;59.50
27188;DHT22;14708;50.872;5.306;2022-11-20T09:42:13;20.80;59.40
27188;DHT22;14708;50.872;5.306;2022-11-20T09:45:12;20.70;58.50
27188;DHT22;14708;50.872;5.306;2022-11-20T09:50:32;20.70;59.70
27188;DHT22;14708;50.872;5.306;2022-11-20T09:55:29;20.60;59.80
27188;DHT22;14708;50.872;5.306;2022-11-20T09:57:56;20.60;59.80
27188;DHT22;14708;50.872;5.306;2022-11-20T10:00:23;20.50;59.60
27188;DHT22;14708;50.872;5.306;2022-11-20T10:05:43;20.40;58.20
27188;DHT22;14708;50.872;5.306;2022-11-20T10:08:34;20.40;58.40
27188;DHT22;14708;50.872;5.306;2022-11-20T10:17:22;20.50;58.50
27188;DHT22;14708;50.872;5.306;2022-11-20T10:22:35;20.50;56.80
27188;DHT22;14708;50.872;5.306;2022-11-20T10:25:13;20.50;55.40
27188;DHT22;14708;50.872;5.306;2022-11-20T10:30:41;20.50;55.50
27188;DHT22;14708;50.872;5.306;2022-11-20T10:33:17;20.50;55.20
27188;DHT22;14708;50.872;5.306;2022-11-20T10:35:44;20.50;55.00
27188;DHT22;14708;50.872;5.306;2022-11-20T10:38:21;20.60;55.70
27188;DHT22;14708;50.872;5.306;2022-11-20T10:40:53;20.50;54.10
27188;DHT22;14708;50.872;5.306;2022-11-20T10:43:40;20.50;54.50
27188;DHT22;14708;50.872;5.306;2022-11-20T10:46:12;20.50;56.20
27188;DHT22;14708;50.872;5.306;2022-11-20T10:48:41;20.50;56.70
27188;DHT22;14708;50.872;5.306;2022-11-20T10:56:50;20.50;55.80
27188;DHT22;14708;50.872;5.306;2022-11-20T11:01:42;20.50;55.40
27188;DHT22;14708;50.872;5.306;2022-11-20T11:07:04;20.50;56.00
27188;DHT22;14708;50.872;5.306;2022-11-20T11:09:37;20.50;56.10
27188;DHT22;14708;50.872;5.306;2022-11-20T11:12:08;20.50;56.10
27188;DHT22;14708;50.872;5.306;2022-11-20T11:14:46;20.50;55.30
27188;DHT22;14708;50.872;5.306;2022-11-20T11:17:21;20.50;55.40
27188;DHT22;14708;50.872;5.306;2022-11-20T11:22:52;20.40;55.30
27188;DHT22;14708;50.872;5.306;2022-11-20T11:25:29;20.40;54.50
27188;DHT22;14708;50.872;5.306;2022-11-20T11:27:58;20.50;56.40
27188;DHT22;14708;50.872;5.306;2022-11-20T11:30:26;20.60;56.80
27188;DHT22;14708;50.872;5.306;2022-11-20T11:33:06;20.60;56.70
27188;DHT22;14708;50.872;5.306;2022-11-20T11:35:32;20.60;56.50
27188;DHT22;14708;50.872;5.306;2022-11-20T11:38:07;20.50;55.00
27188;DHT22;14708;50.872;5.306;2022-11-20T11:40:35;20.50;56.00
27188;DHT22;14708;50.872;5.306;2022-11-20T11:43:17;20.50;55.80
27188;DHT22;14708;50.872;5.306;2022-11-20T11:46:24;20.50;56.50
27188;DHT22;14708;50.872;5.306;2022-11-20T11:49:00;20.50;56.80
27188;DHT22;14708;50.872;5.306;2022-11-20T11:54:38;20.60;56.40
27188;DHT22;14708;50.872;5.306;2022-11-20T11:57:14;20.70;56.80
27188;DHT22;14708;50.872;5.306;2022-11-20T12:00:00;20.70;56.90
27188;DHT22;14708;50.872;5.306;2022-11-20T12:05:23;20.70;57.70
27188;DHT22;14708;50.872;5.306;2022-11-20T12:10:54;20.60;58.30
27188;DHT22;14708;50.872;5.306;2022-11-20T12:16:20;20.60;59.20
27188;DHT22;14708;50.872;5.306;2022-11-20T12:18:49;20.70;59.20
27188;DHT22;14708;50.872;5.306;2022-11-20T12:26:40;20.70;59.10
27188;DHT22;14708;50.872;5.306;2022-11-20T12:37:48;20.70;58.90
27188;DHT22;14708;50.872;5.306;2022-11-20T12:43:23;20.70;59.10
27188;DHT22;14708;50.872;5.306;2022-11-20T12:46:41;20.80;59.10
27188;DHT22;14708;50.872;5.306;2022-11-20T12:57:09;20.60;59.30
27188;DHT22;14708;50.872;5.306;2022-11-20T13:02:51;20.60;59.50
27188;DHT22;14708;50.872;5.306;2022-11-20T13:08:40;20.60;59.50
27188;DHT22;14708;50.872;5.306;2022-11-20T13:11:32;20.60;59.60
27188;DHT22;14708;50.872;5.306;2022-11-20T13:19:11;20.60;59.50
27188;DHT22;14708;50.872;5.306;2022-11-20T13:21:40;20.60;59.60
27188;DHT22;14708;50.872;5.306;2022-11-20T13:24:06;20.60;59.60
27188;DHT22;14708;50.872;5.306;2022-11-20T13:26:32;20.60;59.60
27188;DHT22;14708;50.872;5.306;2022-11-20T13:29:25;20.60;59.50
27188;DHT22;14708;50.872;5.306;2022-11-20T13:31:50;20.60;59.50
27188;DHT22;14708;50.872;5.306;2022-11-20T13:34:26;20.60;59.70
27188;DHT22;14708;50.872;5.306;2022-11-20T13:36:54;20.60;59.60
27188;DHT22;14708;50.872;5.306;2022-11-20T13:39:46;20.60;59.70
27188;DHT22;14708;50.872;5.306;2022-11-20T13:44:42;20.60;59.80
27188;DHT22;14708;50.872;5.306;2022-11-20T13:47:23;20.60;59.70
27188;DHT22;14708;50.872;5.306;2022-11-20T13:49:49;20.50;59.50
27188;DHT22;14708;50.872;5.306;2022-11-20T13:55:16;20.50;59.60
27188;DHT22;14708;50.872;5.306;2022-11-20T13:57:54;20.50;59.80
27188;DHT22;14708;50.872;5.306;2022-11-20T14:00:25;20.50;59.90
27188;DHT22;14708;50.872;5.306;2022-11-20T14:05:45;20.50;59.90
27188;DHT22;14708;50.872;5.306;2022-11-20T14:08:41;20.50;59.80
27188;DHT22;14708;50.872;5.306;2022-11-20T14:11:26;20.50;59.90
27188;DHT22;14708;50.872;5.306;2022-11-20T14:14:01;20.60;59.50
27188;DHT22;14708;50.872;5.306;2022-11-20T14:16:31;20.60;59.50
27188;DHT22;14708;50.872;5.306;2022-11-20T14:18:57;20.70;59.50
27188;DHT22;14708;50.872;5.306;2022-11-20T14:21:36;20.70;59.50
27188;DHT22;14708;50.872;5.306;2022-11-20T14:24:06;20.70;59.70
27188;DHT22;14708;50.872;5.306;2022-11-20T14:26:32;20.80;59.70
27188;DHT22;14708;50.872;5.306;2022-11-20T14:28:59;20.90;60.60
27188;DHT22;14708;50.872;5.306;2022-11-20T14:31:26;21.00;60.20
27188;DHT22;14708;50.872;5.306;2022-11-20T14:33:55;21.10;59.90
27188;DHT22;14708;50.872;5.306;2022-11-20T14:36:23;21.20;59.80
27188;DHT22;14708;50.872;5.306;2022-11-20T14:38:51;21.30;59.90
27188;DHT22;14708;50.872;5.306;2022-11-20T14:41:23;21.30;59.60
27188;DHT22;14708;50.872;5.306;2022-11-20T14:43:59;21.50;59.80
27188;DHT22;14708;50.872;5.306;2022-11-20T14:46:25;21.60;59.70
27188;DHT22;14708;50.872;5.306;2022-11-20T14:48:54;21.60;59.50
27188;DHT22;14708;50.872;5.306;2022-11-20T14:51:39;21.70;59.80
27188;DHT22;14708;50.872;5.306;2022-11-20T14:54:15;21.80;58.60
27188;DHT22;14708;50.872;5.306;2022-11-20T14:56:41;21.90;58.60
27188;DHT22;14708;50.872;5.306;2022-11-20T14:59:08;21.90;58.70
27188;DHT22;14708;50.872;5.306;2022-11-20T15:01:35;21.90;58.90
27188;DHT22;14708;50.872;5.306;2022-11-20T15:06:28;22.00;59.30
27188;DHT22;14708;50.872;5.306;2022-11-20T15:08:54;22.10;59.50
27188;DHT22;14708;50.872;5.306;2022-11-20T15:11:25;22.10;59.40
27188;DHT22;14708;50.872;5.306;2022-11-20T15:13:52;22.10;58.30
27188;DHT22;14708;50.872;5.306;2022-11-20T15:16:20;22.20;59.00
27188;DHT22;14708;50.872;5.306;2022-11-20T15:18:46;22.20;59.60
27188;DHT22;14708;50.872;5.306;2022-11-20T15:21:15;22.30;60.00
27188;DHT22;14708;50.872;5.306;2022-11-20T15:23:41;22.40;59.70
27188;DHT22;14708;50.872;5.306;2022-11-20T15:26:08;22.40;60.50
27188;DHT22;14708;50.872;5.306;2022-11-20T15:28:42;22.50;60.70
27188;DHT22;14708;50.872;5.306;2022-11-20T15:31:14;22.60;60.60
27188;DHT22;14708;50.872;5.306;2022-11-20T15:33:39;22.60;60.90
27188;DHT22;14708;50.872;5.306;2022-11-20T15:36:05;22.60;61.30
27188;DHT22;14708;50.872;5.306;2022-11-20T15:38:32;22.60;61.70
27188;DHT22;14708;50.872;5.306;2022-11-20T15:40:58;22.60;61.80
27188;DHT22;14708;50.872;5.306;2022-11-20T15:43:23;22.60;61.60
27188;DHT22;14708;50.872;5.306;2022-11-20T15:45:51;22.60;61.70
27188;DHT22;14708;50.872;5.306;2022-11-20T15:48:24;22.70;61.60
27188;DHT22;14708;50.872;5.306;2022-11-20T15:53:36;22.60;60.80
27188;DHT22;14708;50.872;5.306;2022-11-20T15:56:02;22.70;60.80
27188;DHT22;14708;50.872;5.306;2022-11-20T15:58:28;22.70;60.80
27188;DHT22;14708;50.872;5.306;2022-11-20T16:00:53;22.70;61.20
27188;DHT22;14708;50.872;5.306;2022-11-20T16:03:20;22.60;61.30
27188;DHT22;14708;50.872;5.306;2022-11-20T16:05:49;22.70;62.00
27188;DHT22;14708;50.872;5.306;2022-11-20T16:08:14;22.70;62.20
27188;DHT22;14708;50.872;5.306;2022-11-20T16:10:40;22.70;62.30
27188;DHT22;14708;50.872;5.306;2022-11-20T16:13:17;22.70;62.30
27188;DHT22;14708;50.872;5.306;2022-11-20T16:16:05;22.70;62.30
27188;DHT22;14708;50.872;5.306;2022-11-20T16:18:32;22.70;62.50
27188;DHT22;14708;50.872;5.306;2022-11-20T16:20:58;22.80;62.60
27188;DHT22;14708;50.872;5.306;2022-11-20T16:23:24;22.80;62.80
27188;DHT22;14708;50.872;5.306;2022-11-20T16:25:50;22.80;62.70
27188;DHT22;14708;50.872;5.306;2022-11-20T16:28:16;22.80;62.80
27188;DHT22;14708;50.872;5.306;2022-11-20T16:30:42;22.80;62.80
27188;DHT22;14708;50.872;5.306;2022-11-20T16:33:16;22.80;61.80
27188;DHT22;14708;50.872;5.306;2022-11-20T16:35:42;22.80;62.00
27188;DHT22;14708;50.872;5.306;2022-11-20T16:38:08;22.80;63.00
27188;DHT22;14708;50.872;5.306;2022-11-20T16:40:34;22.90;63.00
27188;DHT22;14708;50.872;5.306;2022-11-20T16:43:11;23.00;63.80
27188;DHT22;14708;50.872;5.306;2022-11-20T16:45:43;23.00;64.30
27188;DHT22;14708;50.872;5.306;2022-11-20T16:48:14;23.00;64.50
27188;DHT22;14708;50.872;5.306;2022-11-20T16:50:51;23.00;64.50
27188;DHT22;14708;50.872;5.306;2022-11-20T16:53:18;23.00;64.90
27188;DHT22;14708;50.872;5.306;2022-11-20T16:55:44;23.00;64.40
27188;DHT22;14708;50.872;5.306;2022-11-20T16:58:09;23.00;65.10
27188;DHT22;14708;50.872;5.306;2022-11-20T17:00:36;23.10;65.20
27188;DHT22;14708;50.872;5.306;2022-11-20T17:03:03;23.10;64.50
27188;DHT22;14708;50.872;5.306;2022-11-20T17:05:29;23.20;63.80
27188;DHT22;14708;50.872;5.306;2022-11-20T17:07:55;23.20;62.80
27188;DHT22;14708;50.872;5.306;2022-11-20T17:10:21;23.20;62.70
27188;DHT22;14708;50.872;5.306;2022-11-20T17:12:47;23.10;61.40
27188;DHT22;14708;50.872;5.306;2022-11-20T17:15:12;23.00;62.80
27188;DHT22;14708;50.872;5.306;2022-11-20T17:17:38;22.90;63.10
27188;DHT22;14708;50.872;5.306;2022-11-20T17:20:04;22.90;64.00
27188;DHT22;14708;50.872;5.306;2022-11-20T17:22:30;22.80;64.20
27188;DHT22;14708;50.872;5.306;2022-11-20T17:24:56;22.80;64.00